This is the latest recevied weather packets stored in our database for station/object W4CAT-WX. If no packets are shown the sender has not sent any weather packets the latest 10 day(s).
| Time | Temp. | Humidity | Pressure | Rain* | Wind** | Luminosity | Snow |
|---|---|---|---|---|---|---|---|
| 1777415704 | 23.33° C | 79% | 976 hPa | 0 mm | - | - | - |
| 1777414774 | 23.33° C | 77% | 976 hPa | 0 mm | - | - | - |
| 1777413844 | 23.89° C | 76% | 976.6 hPa | 0 mm | - | - | - |
| 1777412944 | 23.89° C | 74% | 976.6 hPa | 0 mm | - | - | - |
| 1777412014 | 24.44° C | 72% | 976.3 hPa | 0 mm | - | - | - |
| 1777411084 | 25° C | 70% | 976.6 hPa | 0 mm | - | - | - |
| 1777410154 | 25.56° C | 68% | 976.3 hPa | 0 mm | - | - | - |
| 1777409224 | 26.11° C | 67% | 977 hPa | 0 mm | - | - | - |
| 1777408294 | 26.11° C | 68% | 977.3 hPa | 0 mm | - | - | - |
| 1777407394 | 25° C | 73% | 977.6 hPa | 0 mm | - | - | - |
| 1777406494 | 24.44° C | 72% | 978.3 hPa | 0 mm | - | - | - |
| 1777405594 | 24.44° C | 74% | 978.7 hPa | 0 mm | - | - | - |
| 1777404664 | 23.89° C | 76% | 978.3 hPa | 0 mm | - | - | - |
| 1777403764 | 23.33° C | 78% | 978.7 hPa | 0 mm | - | - | - |
| 1777402864 | 23.33° C | 78% | 979 hPa | 0 mm | - | - | - |
| 1777401934 | 23.89° C | 75% | 979 hPa | 0 mm | - | - | - |
| 1777401034 | 22.78° C | 81% | 979 hPa | 0 mm | - | - | - |
| 1777400134 | 22.22° C | 83% | 979 hPa | 0 mm | - | - | - |
| 1777399204 | 22.22° C | 82% | 979 hPa | 0 mm | - | - | - |
| 1777398304 | 22.22° C | 82% | 979.7 hPa | 0 mm | - | - | - |
| 1777397374 | 22.22° C | 84% | 979.3 hPa | 0 mm | - | - | - |
| 1777396444 | 21.67° C | 84% | 979.7 hPa | 0 mm | - | - | - |
| 1777395544 | 21.11° C | 84% | 979.7 hPa | 0 mm | - | - | - |
| 1777394614 | 21.11° C | 86% | 980 hPa | 0 mm | - | - | - |
| 1777393714 | 20° C | 89% | 980 hPa | 0 mm | - | - | - |
* Rain latest hour (hover to see other rain measurements)
** Current wind speed in m/s (hover to see current wind gust speed)